Amboy, Iowa
Current Conditions -  °F | °C
As of 12:55 AM on Friday 28 Nov 2014 (Local Time) from KTNU Reporting Station
Broken Clouds Broken Clouds  
Wind Chill: -4°   Ceiling: 11000
Heat Index: 12°   Visibility: 10mi
Dew Point:   Wind: 16mph
Humidity: 73%   Direction: 140°SE
Pressure: 30.23"   Gusts: NA
Location:  41.7317°N, 93.0122°W
Report Text: KTNU 280655Z AUTO 14014KT 10SM FEW085 BKN110 M11/M15 A3023 RMK AO2
Loading
Personal Weather Stations






























Interactive Weather Map New forecast layout! Learn more

10-Day Weather Forecast

Advertisements
Track Severe Weather on mobile